EZY36Q EGGD-LXGB
Flight info
| Callsign | EZY36Q |
|---|---|
| Flight time | 2h 22m |
| Altitude | 34000 |
| Route | EXMOR N92 DAWLY N864 BHD DCT SALCO DCT NOVAN/N0443F370 DCT DELOG DCT CRISA DCT VULPE DCT MAR N864 PIMOS |
| Aircraft | A320/M-SDE3FGHIRWY/LB1 |
Departure
| Time | 2026-05-07 12:39 |
|---|---|
| Airport | Bristol Airport (EGGD) |
Arrival
| Time | 2026-05-07 15:01 |
|---|---|
| Airport | Gibraltar Airport (LXGB) |
| Time | Latitude | Longitude | Altitude | Speed | Heading |
|---|---|---|---|---|---|
| 2026-05-07 12:26 | 51.38572 | -2.70704 | 610 ft | 0 kts | 87° |
| 2026-05-07 12:33 | 51.38573 | -2.70681 | 617 ft | 7 kts | 87° |
| 2026-05-07 12:34 | 51.38573 | -2.70648 | 610 ft | 5 kts | 88° |
| 2026-05-07 12:35 | 51.38574 | -2.70610 | 610 ft | 3 kts | 88° |
| 2026-05-07 12:35 | 51.38575 | -2.70596 | 610 ft | 0 kts | 88° |
| 2026-05-07 12:36 | 51.38572 | -2.70592 | 610 ft | 1 kts | 124° |
| 2026-05-07 12:36 | 51.38561 | -2.70593 | 622 ft | 2 kts | 176° |
| 2026-05-07 12:37 | 51.38519 | -2.70590 | 610 ft | 13 kts | 167° |
| 2026-05-07 12:37 | 51.38466 | -2.70544 | 620 ft | 1 kts | 149° |
| 2026-05-07 12:37 | 51.38426 | -2.70516 | 618 ft | 11 kts | 163° |
| 2026-05-07 12:37 | 51.38340 | -2.70501 | 622 ft | 12 kts | 204° |
| 2026-05-07 12:38 | 51.38321 | -2.70581 | 614 ft | 0 kts | 268° |
| 2026-05-07 12:38 | 51.38320 | -2.70597 | 610 ft | 9 kts | 265° |
| 2026-05-07 12:38 | 51.38299 | -2.71146 | 611 ft | 86 kts | 264° |
| 2026-05-07 12:39 | 51.38248 | -2.72421 | 618 ft | 141 kts | 265° |
| 2026-05-07 12:39 | 51.38172 | -2.74210 | 815 ft | 168 kts | 267° |
| 2026-05-07 12:39 | 51.38121 | -2.76031 | 1501 ft | 163 kts | 267° |
| 2026-05-07 12:39 | 51.38078 | -2.77890 | 1990 ft | 172 kts | 266° |
| 2026-05-07 12:40 | 51.38017 | -2.79826 | 2461 ft | 181 kts | 263° |
| 2026-05-07 12:40 | 51.37943 | -2.81956 | 2855 ft | 198 kts | 263° |
| 2026-05-07 12:40 | 51.37861 | -2.84229 | 3238 ft | 217 kts | 263° |
| 2026-05-07 12:40 | 51.37759 | -2.86731 | 3737 ft | 233 kts | 259° |
| 2026-05-07 12:41 | 51.37102 | -2.89083 | 4309 ft | 239 kts | 223° |
| 2026-05-07 12:41 | 51.35682 | -2.90563 | 4916 ft | 251 kts | 207° |
| 2026-05-07 12:41 | 51.34121 | -2.91902 | 5629 ft | 258 kts | 210° |
| 2026-05-07 12:41 | 51.32666 | -2.93616 | 5944 ft | 260 kts | 221° |
| 2026-05-07 12:42 | 51.31374 | -2.95660 | 6005 ft | 262 kts | 226° |
| 2026-05-07 12:42 | 51.30149 | -2.97820 | 6001 ft | 262 kts | 227° |
| 2026-05-07 12:42 | 51.29030 | -3.00105 | 6096 ft | 262 kts | 233° |
| 2026-05-07 12:42 | 51.27753 | -3.02056 | 6742 ft | 260 kts | 204° |
| 2026-05-07 12:43 | 51.26036 | -3.03008 | 7503 ft | 264 kts | 198° |
| 2026-05-07 12:43 | 51.24299 | -3.04026 | 8260 ft | 268 kts | 206° |
| 2026-05-07 12:43 | 51.23882 | -3.04362 | 8469 ft | 268 kts | 207° |
| 2026-05-07 12:43 | 51.22219 | -3.05774 | 9214 ft | 272 kts | 208° |
| 2026-05-07 12:44 | 51.20558 | -3.07239 | 10004 ft | 275 kts | 208° |
| 2026-05-07 12:44 | 51.18869 | -3.08756 | 10556 ft | 286 kts | 209° |
| 2026-05-07 12:44 | 51.17088 | -3.10361 | 10924 ft | 303 kts | 209° |
| 2026-05-07 12:44 | 51.15221 | -3.12037 | 11276 ft | 318 kts | 209° |
| 2026-05-07 12:45 | 51.13271 | -3.13782 | 11843 ft | 326 kts | 209° |
| 2026-05-07 12:45 | 51.11280 | -3.15563 | 12550 ft | 329 kts | 209° |
| 2026-05-07 12:45 | 51.09278 | -3.17353 | 13254 ft | 332 kts | 208° |
| 2026-05-07 12:45 | 51.07249 | -3.19162 | 13937 ft | 336 kts | 208° |
| 2026-05-07 12:46 | 51.05202 | -3.20982 | 14551 ft | 339 kts | 209° |
| 2026-05-07 12:46 | 51.03133 | -3.22817 | 15181 ft | 341 kts | 209° |
| 2026-05-07 12:46 | 51.01053 | -3.24657 | 15796 ft | 344 kts | 209° |
| 2026-05-07 12:46 | 50.98950 | -3.26514 | 16390 ft | 347 kts | 209° |
| 2026-05-07 12:47 | 50.96863 | -3.28356 | 16969 ft | 350 kts | 209° |
| 2026-05-07 12:47 | 50.94726 | -3.30242 | 17565 ft | 353 kts | 209° |
| 2026-05-07 12:47 | 50.92568 | -3.32141 | 18140 ft | 356 kts | 209° |
| 2026-05-07 12:47 | 50.90396 | -3.34048 | 18677 ft | 359 kts | 209° |
| 2026-05-07 12:48 | 50.88221 | -3.35956 | 19173 ft | 361 kts | 210° |
| 2026-05-07 12:48 | 50.85995 | -3.37909 | 19698 ft | 364 kts | 210° |
| 2026-05-07 12:48 | 50.83797 | -3.39833 | 20204 ft | 367 kts | 210° |
| 2026-05-07 12:48 | 50.81460 | -3.41614 | 20728 ft | 370 kts | 201° |
| 2026-05-07 12:49 | 50.78971 | -3.42680 | 21231 ft | 374 kts | 191° |
| 2026-05-07 12:49 | 50.76410 | -3.43161 | 21726 ft | 377 kts | 187° |
| 2026-05-07 12:49 | 50.73784 | -3.43604 | 22213 ft | 380 kts | 187° |
| 2026-05-07 12:49 | 50.71147 | -3.44053 | 22697 ft | 383 kts | 187° |
| 2026-05-07 12:50 | 50.68485 | -3.44505 | 23194 ft | 386 kts | 187° |
| 2026-05-07 12:50 | 50.65793 | -3.44963 | 23673 ft | 389 kts | 187° |
| 2026-05-07 12:50 | 50.63108 | -3.45420 | 24056 ft | 391 kts | 187° |
| 2026-05-07 12:50 | 50.60400 | -3.45884 | 24438 ft | 394 kts | 187° |
| 2026-05-07 12:51 | 50.57657 | -3.46352 | 24811 ft | 396 kts | 187° |
| 2026-05-07 12:51 | 50.54950 | -3.46811 | 25172 ft | 398 kts | 187° |
| 2026-05-07 12:51 | 50.52189 | -3.47280 | 25527 ft | 400 kts | 187° |
| 2026-05-07 12:51 | 50.49424 | -3.47748 | 25880 ft | 402 kts | 187° |
| 2026-05-07 12:52 | 50.46636 | -3.48217 | 26206 ft | 404 kts | 187° |
| 2026-05-07 12:52 | 50.43833 | -3.48688 | 26542 ft | 406 kts | 187° |
| 2026-05-07 12:52 | 50.41027 | -3.49160 | 26867 ft | 408 kts | 187° |
| 2026-05-07 12:52 | 50.38180 | -3.49583 | 27192 ft | 410 kts | 185° |
| 2026-05-07 12:53 | 50.35345 | -3.49839 | 27511 ft | 412 kts | 184° |
| 2026-05-07 12:53 | 50.32485 | -3.49981 | 27825 ft | 414 kts | 182° |
| 2026-05-07 12:53 | 50.29598 | -3.50067 | 28138 ft | 416 kts | 182° |
| 2026-05-07 12:53 | 50.26700 | -3.50148 | 28442 ft | 418 kts | 182° |
| 2026-05-07 12:54 | 50.23792 | -3.50253 | 28739 ft | 419 kts | 183° |
| 2026-05-07 12:54 | 50.20874 | -3.50385 | 29029 ft | 421 kts | 183° |
| 2026-05-07 12:54 | 50.17948 | -3.50539 | 29312 ft | 422 kts | 183° |
| 2026-05-07 12:54 | 50.15028 | -3.50705 | 29587 ft | 424 kts | 184° |
| 2026-05-07 12:55 | 50.12052 | -3.50879 | 29860 ft | 426 kts | 184° |
| 2026-05-07 12:55 | 50.09103 | -3.51046 | 30108 ft | 427 kts | 183° |
| 2026-05-07 12:55 | 50.06151 | -3.51211 | 30327 ft | 429 kts | 183° |
| 2026-05-07 12:55 | 50.03156 | -3.51375 | 30539 ft | 430 kts | 183° |
| 2026-05-07 12:56 | 50.00153 | -3.51534 | 30751 ft | 431 kts | 183° |
| 2026-05-07 12:56 | 49.97162 | -3.51692 | 30954 ft | 432 kts | 183° |
| 2026-05-07 12:56 | 49.94148 | -3.51851 | 31149 ft | 433 kts | 183° |
| 2026-05-07 12:56 | 49.91140 | -3.52013 | 31429 ft | 432 kts | 183° |
| 2026-05-07 12:57 | 49.88171 | -3.52176 | 31717 ft | 431 kts | 183° |
| 2026-05-07 12:57 | 49.85185 | -3.52339 | 32000 ft | 430 kts | 183° |
| 2026-05-07 12:57 | 49.82204 | -3.52499 | 32270 ft | 429 kts | 184° |
| 2026-05-07 12:57 | 49.79220 | -3.52660 | 32535 ft | 428 kts | 184° |
| 2026-05-07 12:58 | 49.76240 | -3.52822 | 32799 ft | 428 kts | 184° |
| 2026-05-07 12:58 | 49.73274 | -3.52982 | 33069 ft | 427 kts | 184° |
| 2026-05-07 12:58 | 49.70309 | -3.53145 | 33324 ft | 426 kts | 184° |
| 2026-05-07 12:58 | 49.67340 | -3.53306 | 33582 ft | 426 kts | 184° |
| 2026-05-07 12:59 | 49.64407 | -3.53459 | 33836 ft | 425 kts | 184° |
| 2026-05-07 12:59 | 49.61463 | -3.53608 | 34005 ft | 425 kts | 183° |
| 2026-05-07 12:59 | 49.55566 | -3.53917 | 34028 ft | 424 kts | 184° |
| 2026-05-07 13:00 | 49.49679 | -3.54234 | 34031 ft | 423 kts | 184° |
| 2026-05-07 13:00 | 49.43786 | -3.54544 | 34033 ft | 423 kts | 183° |
| 2026-05-07 13:01 | 49.37902 | -3.54838 | 34028 ft | 423 kts | 183° |
| 2026-05-07 13:01 | 49.32016 | -3.55135 | 34026 ft | 423 kts | 183° |
| 2026-05-07 13:02 | 49.26178 | -3.55450 | 34025 ft | 423 kts | 183° |
| 2026-05-07 13:02 | 49.20298 | -3.55774 | 34016 ft | 423 kts | 183° |
| 2026-05-07 13:03 | 49.14423 | -3.56078 | 34017 ft | 422 kts | 183° |
| 2026-05-07 13:03 | 49.08550 | -3.56376 | 34017 ft | 422 kts | 183° |
| 2026-05-07 13:04 | 49.02722 | -3.56675 | 34008 ft | 422 kts | 183° |
| 2026-05-07 13:04 | 48.96853 | -3.56973 | 34004 ft | 422 kts | 183° |
| 2026-05-07 13:05 | 48.90993 | -3.57267 | 34001 ft | 421 kts | 183° |
| 2026-05-07 13:05 | 48.85134 | -3.57567 | 34005 ft | 421 kts | 183° |
| 2026-05-07 13:06 | 48.79271 | -3.57870 | 34003 ft | 421 kts | 183° |
| 2026-05-07 13:06 | 48.73459 | -3.58169 | 33993 ft | 421 kts | 183° |
| 2026-05-07 13:07 | 48.67611 | -3.58467 | 34004 ft | 421 kts | 183° |
| 2026-05-07 13:07 | 48.61757 | -3.58763 | 34000 ft | 421 kts | 183° |
| 2026-05-07 13:08 | 48.55938 | -3.59061 | 34000 ft | 420 kts | 183° |
| 2026-05-07 13:08 | 48.50095 | -3.59356 | 33994 ft | 420 kts | 183° |
| 2026-05-07 13:09 | 48.44246 | -3.59648 | 33992 ft | 420 kts | 182° |
| 2026-05-07 13:09 | 48.38405 | -3.59944 | 33992 ft | 420 kts | 182° |
| 2026-05-07 13:10 | 48.32552 | -3.60245 | 33992 ft | 420 kts | 183° |
| 2026-05-07 13:10 | 48.26742 | -3.60526 | 33990 ft | 420 kts | 182° |
| 2026-05-07 13:11 | 48.20896 | -3.60827 | 33993 ft | 420 kts | 183° |
| 2026-05-07 13:11 | 48.15055 | -3.61120 | 33993 ft | 421 kts | 182° |
| 2026-05-07 13:12 | 48.09192 | -3.61404 | 33996 ft | 421 kts | 183° |
| 2026-05-07 13:12 | 48.03353 | -3.61689 | 33998 ft | 421 kts | 183° |
| 2026-05-07 13:13 | 47.97538 | -3.61984 | 34004 ft | 421 kts | 183° |
| 2026-05-07 13:13 | 47.91695 | -3.62277 | 34004 ft | 421 kts | 183° |
| 2026-05-07 13:14 | 47.85843 | -3.62574 | 34006 ft | 421 kts | 183° |
| 2026-05-07 13:14 | 47.79995 | -3.62857 | 34006 ft | 421 kts | 183° |
| 2026-05-07 13:15 | 47.74184 | -3.63132 | 34010 ft | 421 kts | 183° |
| 2026-05-07 13:15 | 47.68331 | -3.63415 | 34016 ft | 421 kts | 183° |
| 2026-05-07 13:16 | 47.62478 | -3.63707 | 34012 ft | 421 kts | 183° |
| 2026-05-07 13:16 | 47.56625 | -3.63994 | 34013 ft | 421 kts | 183° |
| 2026-05-07 13:17 | 47.50810 | -3.64277 | 34016 ft | 421 kts | 183° |
| 2026-05-07 13:17 | 47.44955 | -3.64558 | 34016 ft | 421 kts | 183° |
| 2026-05-07 13:18 | 47.39098 | -3.64837 | 34018 ft | 421 kts | 183° |
| 2026-05-07 13:18 | 47.33251 | -3.65123 | 34021 ft | 421 kts | 183° |
| 2026-05-07 13:19 | 47.27401 | -3.65407 | 34020 ft | 421 kts | 183° |
| 2026-05-07 13:19 | 47.21544 | -3.65686 | 34024 ft | 421 kts | 183° |
| 2026-05-07 13:20 | 47.15732 | -3.65962 | 34018 ft | 421 kts | 183° |
| 2026-05-07 13:20 | 47.09880 | -3.66244 | 34023 ft | 421 kts | 183° |
| 2026-05-07 13:21 | 47.04030 | -3.66525 | 34020 ft | 421 kts | 183° |
| 2026-05-07 13:21 | 46.98169 | -3.66803 | 34017 ft | 421 kts | 183° |
| 2026-05-07 13:22 | 46.92352 | -3.67083 | 34018 ft | 421 kts | 183° |
| 2026-05-07 13:22 | 46.86502 | -3.67365 | 34018 ft | 421 kts | 183° |
| 2026-05-07 13:23 | 46.80645 | -3.67648 | 34014 ft | 421 kts | 183° |
| 2026-05-07 13:23 | 46.74775 | -3.67922 | 34017 ft | 422 kts | 183° |
| 2026-05-07 13:24 | 46.68918 | -3.68185 | 34013 ft | 422 kts | 183° |
| 2026-05-07 13:24 | 46.63094 | -3.68457 | 34014 ft | 422 kts | 183° |
| 2026-05-07 13:25 | 46.57231 | -3.68749 | 34011 ft | 422 kts | 183° |
| 2026-05-07 13:25 | 46.51366 | -3.69026 | 34012 ft | 421 kts | 183° |
| 2026-05-07 13:26 | 46.45504 | -3.69300 | 34011 ft | 421 kts | 183° |
| 2026-05-07 13:26 | 46.39680 | -3.69572 | 34011 ft | 421 kts | 183° |
| 2026-05-07 13:27 | 46.33819 | -3.69844 | 34013 ft | 421 kts | 183° |
| 2026-05-07 13:27 | 46.27968 | -3.70350 | 34006 ft | 421 kts | 186° |
| 2026-05-07 13:28 | 46.22148 | -3.71299 | 34008 ft | 421 kts | 187° |
| 2026-05-07 13:28 | 46.16333 | -3.72297 | 34010 ft | 421 kts | 187° |
| 2026-05-07 13:29 | 46.10545 | -3.73191 | 34006 ft | 421 kts | 187° |
| 2026-05-07 13:29 | 46.04716 | -3.74034 | 34008 ft | 421 kts | 186° |
| 2026-05-07 13:30 | 45.98924 | -3.74877 | 33999 ft | 421 kts | 186° |
| 2026-05-07 13:30 | 45.93101 | -3.75739 | 34003 ft | 421 kts | 187° |
| 2026-05-07 13:31 | 45.87275 | -3.76602 | 34003 ft | 421 kts | 187° |
| 2026-05-07 13:31 | 45.81445 | -3.77474 | 33999 ft | 421 kts | 187° |
| 2026-05-07 13:32 | 45.75661 | -3.78329 | 33996 ft | 421 kts | 187° |
| 2026-05-07 13:32 | 45.69842 | -3.79171 | 33996 ft | 420 kts | 187° |
| 2026-05-07 13:33 | 45.64024 | -3.80014 | 33995 ft | 420 kts | 187° |
| 2026-05-07 13:33 | 45.58207 | -3.80864 | 33992 ft | 420 kts | 187° |
| 2026-05-07 13:34 | 45.49529 | -3.82122 | 33993 ft | 420 kts | 187° |
| 2026-05-07 13:35 | 45.43706 | -3.82963 | 33993 ft | 420 kts | 187° |
| 2026-05-07 13:35 | 45.37896 | -3.83814 | 33985 ft | 420 kts | 187° |
| 2026-05-07 13:36 | 45.32082 | -3.84662 | 33984 ft | 420 kts | 187° |
| 2026-05-07 13:36 | 45.26263 | -3.85500 | 33979 ft | 420 kts | 187° |
| 2026-05-07 13:37 | 45.20495 | -3.86323 | 33981 ft | 419 kts | 187° |
| 2026-05-07 13:37 | 45.14696 | -3.87159 | 33982 ft | 419 kts | 187° |
| 2026-05-07 13:38 | 45.08898 | -3.87991 | 33979 ft | 419 kts | 187° |
| 2026-05-07 13:38 | 45.03129 | -3.88816 | 33977 ft | 418 kts | 187° |
| 2026-05-07 13:39 | 44.97337 | -3.89642 | 33977 ft | 418 kts | 187° |
| 2026-05-07 13:39 | 44.91552 | -3.90476 | 33973 ft | 418 kts | 187° |
| 2026-05-07 13:40 | 44.85807 | -3.91293 | 33974 ft | 417 kts | 187° |
| 2026-05-07 13:40 | 44.80018 | -3.92115 | 33967 ft | 417 kts | 187° |
| 2026-05-07 13:41 | 44.74248 | -3.92933 | 33965 ft | 417 kts | 187° |
| 2026-05-07 13:41 | 44.68511 | -3.93736 | 33968 ft | 417 kts | 187° |
| 2026-05-07 13:42 | 44.62736 | -3.94546 | 33961 ft | 417 kts | 187° |
| 2026-05-07 13:42 | 44.56987 | -3.95361 | 33961 ft | 416 kts | 187° |
| 2026-05-07 13:43 | 44.51233 | -3.96172 | 33956 ft | 416 kts | 187° |
| 2026-05-07 13:43 | 44.45490 | -3.96987 | 33954 ft | 416 kts | 187° |
| 2026-05-07 13:44 | 44.39706 | -3.97796 | 33952 ft | 416 kts | 187° |
| 2026-05-07 13:44 | 44.33988 | -3.98600 | 33952 ft | 416 kts | 187° |
| 2026-05-07 13:45 | 44.28207 | -3.99340 | 33949 ft | 416 kts | 186° |
| 2026-05-07 13:45 | 44.22439 | -3.99972 | 33945 ft | 417 kts | 186° |
| 2026-05-07 13:46 | 44.16667 | -4.00604 | 33937 ft | 417 kts | 186° |
| 2026-05-07 13:46 | 44.10898 | -4.01258 | 33934 ft | 417 kts | 186° |
| 2026-05-07 13:47 | 44.05100 | -4.01922 | 33932 ft | 418 kts | 186° |
| 2026-05-07 13:47 | 43.99354 | -4.02576 | 33928 ft | 418 kts | 186° |
| 2026-05-07 13:48 | 43.93536 | -4.03236 | 33924 ft | 419 kts | 186° |
| 2026-05-07 13:48 | 43.87731 | -4.03896 | 33920 ft | 419 kts | 186° |
| 2026-05-07 13:49 | 43.81937 | -4.04542 | 33923 ft | 420 kts | 186° |
| 2026-05-07 13:49 | 43.76106 | -4.05199 | 33919 ft | 420 kts | 186° |
| 2026-05-07 13:50 | 43.70297 | -4.05861 | 33909 ft | 419 kts | 186° |
| 2026-05-07 13:50 | 43.64513 | -4.06516 | 33902 ft | 419 kts | 186° |
| 2026-05-07 13:51 | 43.58710 | -4.07169 | 33900 ft | 419 kts | 186° |
| 2026-05-07 13:51 | 43.52908 | -4.07821 | 33897 ft | 418 kts | 186° |
| 2026-05-07 13:52 | 43.47107 | -4.08476 | 33899 ft | 418 kts | 186° |
| 2026-05-07 13:52 | 43.41326 | -4.09117 | 33897 ft | 418 kts | 186° |
| 2026-05-07 13:53 | 43.35562 | -4.09750 | 33896 ft | 418 kts | 186° |
| 2026-05-07 13:53 | 43.29739 | -4.10397 | 33897 ft | 420 kts | 186° |
| 2026-05-07 13:54 | 43.23921 | -4.11054 | 33896 ft | 421 kts | 186° |
| 2026-05-07 13:54 | 43.18074 | -4.11707 | 33897 ft | 422 kts | 186° |
| 2026-05-07 13:55 | 43.12249 | -4.12343 | 33894 ft | 423 kts | 186° |
| 2026-05-07 13:55 | 43.06373 | -4.12984 | 33894 ft | 424 kts | 186° |
| 2026-05-07 13:56 | 43.00507 | -4.13629 | 33898 ft | 425 kts | 186° |
| 2026-05-07 13:56 | 42.94608 | -4.14271 | 33899 ft | 425 kts | 186° |
| 2026-05-07 13:57 | 42.88724 | -4.14923 | 33902 ft | 426 kts | 186° |
| 2026-05-07 13:57 | 42.82845 | -4.15568 | 33904 ft | 426 kts | 186° |
| 2026-05-07 13:58 | 42.76927 | -4.16209 | 33902 ft | 426 kts | 186° |
| 2026-05-07 13:58 | 42.71032 | -4.16850 | 33902 ft | 426 kts | 186° |
| 2026-05-07 13:59 | 42.65127 | -4.17499 | 33902 ft | 427 kts | 186° |
| 2026-05-07 13:59 | 42.59208 | -4.18146 | 33905 ft | 428 kts | 186° |
| 2026-05-07 14:00 | 42.53248 | -4.18795 | 33877 ft | 430 kts | 187° |
| 2026-05-07 14:00 | 42.47216 | -4.19450 | 33914 ft | 437 kts | 187° |
| 2026-05-07 14:01 | 42.41192 | -4.20095 | 33905 ft | 431 kts | 186° |
| 2026-05-07 14:01 | 42.35221 | -4.20732 | 33905 ft | 431 kts | 186° |
| 2026-05-07 14:02 | 42.29256 | -4.21370 | 33906 ft | 432 kts | 186° |
| 2026-05-07 14:02 | 42.23259 | -4.22023 | 33907 ft | 433 kts | 186° |
| 2026-05-07 14:03 | 42.17256 | -4.22678 | 33903 ft | 434 kts | 186° |
| 2026-05-07 14:03 | 42.11254 | -4.23321 | 33906 ft | 434 kts | 186° |
| 2026-05-07 14:04 | 42.05214 | -4.23964 | 33908 ft | 435 kts | 186° |
| 2026-05-07 14:04 | 41.99185 | -4.24597 | 33904 ft | 436 kts | 186° |
| 2026-05-07 14:05 | 41.93127 | -4.25232 | 33905 ft | 437 kts | 186° |
| 2026-05-07 14:05 | 41.87081 | -4.25870 | 33900 ft | 438 kts | 187° |
| 2026-05-07 14:06 | 41.81019 | -4.26523 | 33919 ft | 438 kts | 187° |
| 2026-05-07 14:06 | 41.74929 | -4.27172 | 33910 ft | 439 kts | 187° |
| 2026-05-07 14:07 | 41.68873 | -4.27808 | 33904 ft | 440 kts | 187° |
| 2026-05-07 14:07 | 41.62761 | -4.28448 | 33918 ft | 441 kts | 187° |
| 2026-05-07 14:08 | 41.56674 | -4.29086 | 33907 ft | 442 kts | 187° |
| 2026-05-07 14:08 | 41.50539 | -4.29740 | 33906 ft | 442 kts | 187° |
| 2026-05-07 14:09 | 41.44405 | -4.30384 | 33913 ft | 443 kts | 187° |
| 2026-05-07 14:09 | 41.39277 | -4.30915 | 33907 ft | 444 kts | 187° |
| 2026-05-07 14:10 | 41.33123 | -4.31550 | 33909 ft | 445 kts | 187° |
| 2026-05-07 14:10 | 41.25884 | -4.32305 | 33908 ft | 446 kts | 187° |
| 2026-05-07 14:11 | 41.20680 | -4.32849 | 33909 ft | 447 kts | 187° |
| 2026-05-07 14:11 | 41.14547 | -4.33480 | 33910 ft | 448 kts | 187° |
| 2026-05-07 14:12 | 41.08359 | -4.34125 | 33913 ft | 449 kts | 188° |
| 2026-05-07 14:12 | 41.02108 | -4.34778 | 33913 ft | 449 kts | 188° |
| 2026-05-07 14:13 | 40.95851 | -4.35424 | 33915 ft | 450 kts | 188° |
| 2026-05-07 14:13 | 40.89618 | -4.36061 | 33914 ft | 452 kts | 188° |
| 2026-05-07 14:14 | 40.83392 | -4.36701 | 33922 ft | 453 kts | 188° |
| 2026-05-07 14:14 | 40.77109 | -4.37349 | 33919 ft | 453 kts | 188° |
| 2026-05-07 14:15 | 40.70829 | -4.37996 | 33922 ft | 453 kts | 189° |
| 2026-05-07 14:15 | 40.64546 | -4.38631 | 33924 ft | 454 kts | 188° |
| 2026-05-07 14:16 | 40.58242 | -4.39267 | 33923 ft | 454 kts | 189° |
| 2026-05-07 14:16 | 40.51966 | -4.39909 | 33914 ft | 454 kts | 189° |
| 2026-05-07 14:17 | 40.45649 | -4.40556 | 33920 ft | 454 kts | 189° |
| 2026-05-07 14:17 | 40.39345 | -4.41196 | 33923 ft | 455 kts | 189° |
| 2026-05-07 14:18 | 40.33089 | -4.41831 | 33913 ft | 455 kts | 189° |
| 2026-05-07 14:18 | 40.26791 | -4.42470 | 33913 ft | 455 kts | 190° |
| 2026-05-07 14:19 | 40.20480 | -4.43103 | 33907 ft | 456 kts | 190° |
| 2026-05-07 14:19 | 40.14154 | -4.43744 | 33906 ft | 456 kts | 190° |
| 2026-05-07 14:20 | 40.07807 | -4.44378 | 33901 ft | 456 kts | 190° |
| 2026-05-07 14:20 | 40.01498 | -4.45010 | 33899 ft | 457 kts | 191° |
| 2026-05-07 14:21 | 39.95195 | -4.45648 | 33898 ft | 457 kts | 191° |
| 2026-05-07 14:21 | 39.88839 | -4.46276 | 33903 ft | 458 kts | 191° |
| 2026-05-07 14:22 | 39.81442 | -4.47010 | 33904 ft | 458 kts | 191° |
| 2026-05-07 14:22 | 39.76133 | -4.47534 | 33903 ft | 458 kts | 191° |
| 2026-05-07 14:23 | 39.69786 | -4.48162 | 33901 ft | 459 kts | 192° |
| 2026-05-07 14:23 | 39.63438 | -4.48802 | 33905 ft | 459 kts | 192° |
| 2026-05-07 14:24 | 39.57042 | -4.49442 | 33900 ft | 459 kts | 192° |
| 2026-05-07 14:24 | 39.50698 | -4.50069 | 33900 ft | 460 kts | 192° |
| 2026-05-07 14:25 | 39.44354 | -4.50704 | 33906 ft | 460 kts | 193° |
| 2026-05-07 14:25 | 39.37973 | -4.51327 | 33904 ft | 460 kts | 193° |
| 2026-05-07 14:26 | 39.31572 | -4.51953 | 33902 ft | 460 kts | 193° |
| 2026-05-07 14:26 | 39.25194 | -4.52582 | 33904 ft | 460 kts | 193° |
| 2026-05-07 14:27 | 39.18812 | -4.53213 | 33906 ft | 461 kts | 193° |
| 2026-05-07 14:27 | 39.12443 | -4.53822 | 33899 ft | 460 kts | 193° |
| 2026-05-07 14:28 | 39.06073 | -4.54437 | 33902 ft | 461 kts | 193° |
| 2026-05-07 14:28 | 38.99654 | -4.55063 | 33896 ft | 460 kts | 193° |
| 2026-05-07 14:29 | 38.93304 | -4.55705 | 33888 ft | 458 kts | 195° |
| 2026-05-07 14:29 | 38.87022 | -4.56816 | 33888 ft | 452 kts | 200° |
| 2026-05-07 14:30 | 38.80886 | -4.58252 | 33885 ft | 451 kts | 200° |
| 2026-05-07 14:30 | 38.74710 | -4.59664 | 33882 ft | 451 kts | 200° |
| 2026-05-07 14:31 | 38.68516 | -4.60961 | 33880 ft | 452 kts | 199° |
| 2026-05-07 14:31 | 38.62302 | -4.62211 | 33877 ft | 452 kts | 199° |
| 2026-05-07 14:32 | 38.56111 | -4.63470 | 33877 ft | 452 kts | 199° |
| 2026-05-07 14:32 | 38.49931 | -4.64745 | 33880 ft | 451 kts | 199° |
| 2026-05-07 14:33 | 38.43760 | -4.66033 | 33879 ft | 450 kts | 199° |
| 2026-05-07 14:33 | 38.37580 | -4.67310 | 33882 ft | 449 kts | 199° |
| 2026-05-07 14:34 | 38.31436 | -4.68566 | 33884 ft | 448 kts | 199° |
| 2026-05-07 14:34 | 38.25266 | -4.69838 | 33884 ft | 448 kts | 199° |
| 2026-05-07 14:35 | 38.19135 | -4.71094 | 33887 ft | 448 kts | 199° |
| 2026-05-07 14:35 | 38.13024 | -4.72341 | 33889 ft | 447 kts | 199° |
| 2026-05-07 14:36 | 38.06884 | -4.73594 | 33889 ft | 446 kts | 199° |
| 2026-05-07 14:36 | 38.00759 | -4.74835 | 33887 ft | 446 kts | 199° |
| 2026-05-07 14:37 | 37.94661 | -4.76077 | 33890 ft | 445 kts | 199° |
| 2026-05-07 14:37 | 37.85518 | -4.77927 | 33862 ft | 444 kts | 199° |
| 2026-05-07 14:38 | 37.79435 | -4.79165 | 33860 ft | 443 kts | 199° |
| 2026-05-07 14:38 | 37.73378 | -4.80401 | 33868 ft | 442 kts | 199° |
| 2026-05-07 14:39 | 37.67304 | -4.81634 | 33871 ft | 442 kts | 199° |
| 2026-05-07 14:39 | 37.61242 | -4.82849 | 33875 ft | 442 kts | 199° |
| 2026-05-07 14:40 | 37.55172 | -4.84062 | 33881 ft | 441 kts | 199° |
| 2026-05-07 14:40 | 37.49116 | -4.85282 | 33884 ft | 441 kts | 199° |
| 2026-05-07 14:41 | 37.43065 | -4.86501 | 33888 ft | 440 kts | 199° |
| 2026-05-07 14:41 | 37.37030 | -4.87706 | 33783 ft | 436 kts | 199° |
| 2026-05-07 14:42 | 37.34066 | -4.88287 | 33592 ft | 424 kts | 199° |
| 2026-05-07 14:42 | 37.31183 | -4.88848 | 33181 ft | 414 kts | 199° |
| 2026-05-07 14:42 | 37.28394 | -4.89394 | 32369 ft | 407 kts | 199° |
| 2026-05-07 14:42 | 37.25610 | -4.89949 | 31503 ft | 403 kts | 199° |
| 2026-05-07 14:43 | 37.22861 | -4.90505 | 30658 ft | 399 kts | 198° |
| 2026-05-07 14:43 | 37.20127 | -4.91059 | 29822 ft | 395 kts | 198° |
| 2026-05-07 14:43 | 37.17423 | -4.91602 | 28906 ft | 391 kts | 198° |
| 2026-05-07 14:43 | 37.14781 | -4.92131 | 28069 ft | 386 kts | 198° |
| 2026-05-07 14:44 | 37.12150 | -4.92657 | 27264 ft | 381 kts | 198° |
| 2026-05-07 14:44 | 37.09549 | -4.93178 | 26478 ft | 376 kts | 197° |
| 2026-05-07 14:44 | 37.06983 | -4.93688 | 25711 ft | 372 kts | 197° |
| 2026-05-07 14:44 | 37.04391 | -4.93928 | 24957 ft | 376 kts | 186° |
| 2026-05-07 14:45 | 37.01785 | -4.93795 | 24203 ft | 373 kts | 185° |
| 2026-05-07 14:45 | 36.99235 | -4.93660 | 23499 ft | 368 kts | 185° |
| 2026-05-07 14:45 | 36.96718 | -4.93524 | 23016 ft | 359 kts | 185° |
| 2026-05-07 14:45 | 36.94198 | -4.93391 | 22545 ft | 356 kts | 185° |
| 2026-05-07 14:46 | 36.91730 | -4.93264 | 22097 ft | 354 kts | 185° |
| 2026-05-07 14:46 | 36.90930 | -4.93224 | 21944 ft | 354 kts | 185° |
| 2026-05-07 14:46 | 36.90083 | -4.93181 | 21792 ft | 353 kts | 185° |
| 2026-05-07 14:46 | 36.87707 | -4.92983 | 21338 ft | 351 kts | 184° |
| 2026-05-07 14:47 | 36.85280 | -4.92832 | 20923 ft | 347 kts | 185° |
| 2026-05-07 14:47 | 36.82884 | -4.92727 | 20587 ft | 343 kts | 185° |
| 2026-05-07 14:47 | 36.80521 | -4.92640 | 20184 ft | 342 kts | 185° |
| 2026-05-07 14:47 | 36.78120 | -4.92549 | 19649 ft | 339 kts | 185° |
| 2026-05-07 14:48 | 36.75832 | -4.92447 | 19234 ft | 332 kts | 185° |
| 2026-05-07 14:48 | 36.73521 | -4.92337 | 18820 ft | 332 kts | 185° |
| 2026-05-07 14:48 | 36.71216 | -4.92221 | 18406 ft | 332 kts | 185° |
| 2026-05-07 14:48 | 36.68912 | -4.92103 | 17969 ft | 331 kts | 184° |
| 2026-05-07 14:49 | 36.66609 | -4.91984 | 17547 ft | 330 kts | 184° |
| 2026-05-07 14:49 | 36.64321 | -4.91865 | 17143 ft | 329 kts | 184° |
| 2026-05-07 14:49 | 36.62040 | -4.91747 | 16742 ft | 327 kts | 184° |
| 2026-05-07 14:49 | 36.59761 | -4.91630 | 16281 ft | 327 kts | 183° |
| 2026-05-07 14:50 | 36.57512 | -4.91514 | 15638 ft | 323 kts | 182° |
| 2026-05-07 14:50 | 36.55304 | -4.91400 | 14995 ft | 319 kts | 182° |
| 2026-05-07 14:50 | 36.53097 | -4.91287 | 14336 ft | 317 kts | 181° |
| 2026-05-07 14:50 | 36.50903 | -4.91174 | 13737 ft | 313 kts | 180° |
| 2026-05-07 14:51 | 36.48739 | -4.91065 | 13059 ft | 309 kts | 180° |
| 2026-05-07 14:51 | 36.46607 | -4.90957 | 12398 ft | 305 kts | 180° |
| 2026-05-07 14:51 | 36.44498 | -4.90851 | 11738 ft | 301 kts | 180° |
| 2026-05-07 14:51 | 36.42417 | -4.90748 | 11108 ft | 297 kts | 180° |
| 2026-05-07 14:52 | 36.40367 | -4.90644 | 10483 ft | 293 kts | 180° |
| 2026-05-07 14:52 | 36.38342 | -4.90539 | 9862 ft | 289 kts | 180° |
| 2026-05-07 14:52 | 36.36379 | -4.90436 | 9247 ft | 284 kts | 180° |
| 2026-05-07 14:52 | 36.34417 | -4.90335 | 8724 ft | 282 kts | 180° |
| 2026-05-07 14:53 | 36.32461 | -4.90233 | 8290 ft | 280 kts | 180° |
| 2026-05-07 14:53 | 36.30518 | -4.90132 | 7863 ft | 279 kts | 180° |
| 2026-05-07 14:53 | 36.28581 | -4.90034 | 7434 ft | 277 kts | 181° |
| 2026-05-07 14:53 | 36.26692 | -4.90339 | 7240 ft | 271 kts | 201° |
| 2026-05-07 14:54 | 36.25120 | -4.91437 | 7112 ft | 253 kts | 223° |
| 2026-05-07 14:54 | 36.24071 | -4.93061 | 6991 ft | 238 kts | 244° |
| 2026-05-07 14:54 | 36.23504 | -4.94917 | 6870 ft | 226 kts | 252° |
| 2026-05-07 14:54 | 36.23008 | -4.96742 | 6750 ft | 223 kts | 251° |
| 2026-05-07 14:55 | 36.22505 | -4.98558 | 6634 ft | 223 kts | 251° |
| 2026-05-07 14:55 | 36.22000 | -5.00374 | 6503 ft | 223 kts | 251° |
| 2026-05-07 14:55 | 36.21496 | -5.02186 | 6263 ft | 222 kts | 251° |
| 2026-05-07 14:55 | 36.20996 | -5.03988 | 5945 ft | 220 kts | 251° |
| 2026-05-07 14:56 | 36.20504 | -5.05768 | 5641 ft | 217 kts | 251° |
| 2026-05-07 14:56 | 36.20020 | -5.07521 | 5383 ft | 214 kts | 250° |
| 2026-05-07 14:56 | 36.19539 | -5.09258 | 5074 ft | 213 kts | 250° |
| 2026-05-07 14:56 | 36.19061 | -5.10981 | 4755 ft | 212 kts | 250° |
| 2026-05-07 14:57 | 36.18581 | -5.12706 | 4425 ft | 211 kts | 250° |
| 2026-05-07 14:57 | 36.18117 | -5.14375 | 4105 ft | 204 kts | 250° |
| 2026-05-07 14:57 | 36.17665 | -5.15997 | 3791 ft | 195 kts | 250° |
| 2026-05-07 14:57 | 36.17232 | -5.17547 | 3520 ft | 186 kts | 250° |
| 2026-05-07 14:58 | 36.16826 | -5.19015 | 3223 ft | 175 kts | 250° |
| 2026-05-07 14:58 | 36.16444 | -5.20392 | 2978 ft | 163 kts | 250° |
| 2026-05-07 14:58 | 36.16086 | -5.21674 | 2704 ft | 150 kts | 249° |
| 2026-05-07 14:58 | 36.15762 | -5.22838 | 2439 ft | 140 kts | 250° |
| 2026-05-07 14:59 | 36.15487 | -5.23988 | 2177 ft | 139 kts | 262° |
| 2026-05-07 14:59 | 36.15451 | -5.25169 | 1953 ft | 139 kts | 265° |
| 2026-05-07 14:59 | 36.15412 | -5.26357 | 1703 ft | 138 kts | 265° |
| 2026-05-07 14:59 | 36.15371 | -5.27538 | 1456 ft | 138 kts | 267° |
| 2026-05-07 15:00 | 36.15330 | -5.28720 | 1207 ft | 137 kts | 265° |
| 2026-05-07 15:00 | 36.15289 | -5.29909 | 953 ft | 140 kts | 265° |
| 2026-05-07 15:00 | 36.15257 | -5.31107 | 686 ft | 138 kts | 266° |
| 2026-05-07 15:00 | 36.15235 | -5.32299 | 443 ft | 138 kts | 265° |
| 2026-05-07 15:01 | 36.15189 | -5.33479 | 227 ft | 136 kts | 260° |
| 2026-05-07 15:01 | 36.15135 | -5.34619 | 22 ft | 130 kts | 263° |
| 2026-05-07 15:01 | 36.15106 | -5.35451 | 21 ft | 54 kts | 268° |
| 2026-05-07 15:01 | 36.15100 | -5.35686 | 19 ft | 28 kts | 265° |
| 2026-05-07 15:02 | 36.15052 | -5.35921 | 21 ft | 14 kts | 269° |
| 2026-05-07 15:02 | 36.15078 | -5.35949 | 19 ft | 1 kts | 21° |
| 2026-05-07 15:02 | 36.15097 | -5.35779 | 19 ft | 37 kts | 116° |
| 2026-05-07 15:02 | 36.15097 | -5.35628 | 23 ft | 29 kts | 92° |
| 2026-05-07 15:03 | 36.15107 | -5.35346 | 22 ft | 33 kts | 88° |
| 2026-05-07 15:03 | 36.15114 | -5.35054 | 24 ft | 34 kts | 86° |
| 2026-05-07 15:03 | 36.15127 | -5.34775 | 24 ft | 26 kts | 88° |
| 2026-05-07 15:03 | 36.15188 | -5.34676 | 20 ft | 12 kts | 8° |
| 2026-05-07 15:04 | 36.15298 | -5.34668 | 17 ft | 3 kts | 356° |